sensor_id;sensor_type;location;lat;lon;timestamp;P1;durP1;ratioP1;P2;durP2;ratioP2
71610;SDS011;59459;51.172;6.682;2023-08-06T00:00:41;5.90;;;2.27;;
71610;SDS011;59459;51.172;6.682;2023-08-06T00:03:06;6.90;;;2.57;;
71610;SDS011;59459;51.172;6.682;2023-08-06T00:05:31;5.37;;;2.43;;
71610;SDS011;59459;51.172;6.682;2023-08-06T00:07:56;4.40;;;1.70;;
71610;SDS011;59459;51.172;6.682;2023-08-06T00:10:21;6.10;;;2.20;;
71610;SDS011;59459;51.172;6.682;2023-08-06T00:12:46;5.73;;;2.20;;
71610;SDS011;59459;51.172;6.682;2023-08-06T00:15:12;5.30;;;2.40;;
71610;SDS011;59459;51.172;6.682;2023-08-06T00:17:37;6.17;;;2.27;;
71610;SDS011;59459;51.172;6.682;2023-08-06T00:20:02;5.63;;;1.90;;
71610;SDS011;59459;51.172;6.682;2023-08-06T00:22:38;5.95;;;2.45;;
71610;SDS011;59459;51.172;6.682;2023-08-06T00:25:04;5.20;;;1.73;;
71610;SDS011;59459;51.172;6.682;2023-08-06T00:27:30;5.83;;;2.40;;
71610;SDS011;59459;51.172;6.682;2023-08-06T00:29:55;6.37;;;2.60;;
71610;SDS011;59459;51.172;6.682;2023-08-06T00:32:21;6.28;;;2.30;;
71610;SDS011;59459;51.172;6.682;2023-08-06T00:34:46;6.37;;;2.47;;
71610;SDS011;59459;51.172;6.682;2023-08-06T00:37:11;4.37;;;1.80;;
71610;SDS011;59459;51.172;6.682;2023-08-06T00:39:37;5.27;;;2.30;;
71610;SDS011;59459;51.172;6.682;2023-08-06T00:42:02;7.63;;;2.20;;
71610;SDS011;59459;51.172;6.682;2023-08-06T00:44:27;5.40;;;2.03;;
71610;SDS011;59459;51.172;6.682;2023-08-06T00:46:53;5.57;;;2.13;;
71610;SDS011;59459;51.172;6.682;2023-08-06T00:49:18;6.53;;;1.93;;
71610;SDS011;59459;51.172;6.682;2023-08-06T00:51:43;7.33;;;2.13;;
71610;SDS011;59459;51.172;6.682;2023-08-06T00:54:09;6.77;;;2.27;;
71610;SDS011;59459;51.172;6.682;2023-08-06T00:56:34;4.75;;;2.15;;
71610;SDS011;59459;51.172;6.682;2023-08-06T00:59:00;5.13;;;2.07;;
71610;SDS011;59459;51.172;6.682;2023-08-06T01:01:26;5.63;;;1.60;;
71610;SDS011;59459;51.172;6.682;2023-08-06T01:03:51;5.63;;;1.80;;
71610;SDS011;59459;51.172;6.682;2023-08-06T01:06:17;5.13;;;2.13;;
71610;SDS011;59459;51.172;6.682;2023-08-06T01:11:20;4.27;;;1.70;;
71610;SDS011;59459;51.172;6.682;2023-08-06T01:13:49;4.70;;;1.83;;
71610;SDS011;59459;51.172;6.682;2023-08-06T01:16:17;5.47;;;1.93;;
71610;SDS011;59459;51.172;6.682;2023-08-06T01:18:42;5.65;;;1.92;;
71610;SDS011;59459;51.172;6.682;2023-08-06T01:21:11;4.55;;;1.80;;
71610;SDS011;59459;51.172;6.682;2023-08-06T01:23:36;4.60;;;1.60;;
71610;SDS011;59459;51.172;6.682;2023-08-06T01:26:45;4.93;;;1.67;;
71610;SDS011;59459;51.172;6.682;2023-08-06T01:28:59;5.78;;;2.28;;
71610;SDS011;59459;51.172;6.682;2023-08-06T01:31:30;5.78;;;2.15;;
71610;SDS011;59459;51.172;6.682;2023-08-06T01:33:56;5.13;;;1.90;;
71610;SDS011;59459;51.172;6.682;2023-08-06T01:36:23;5.68;;;1.73;;
71610;SDS011;59459;51.172;6.682;2023-08-06T01:38:48;5.63;;;2.10;;
71610;SDS011;59459;51.172;6.682;2023-08-06T01:41:13;6.83;;;2.27;;
71610;SDS011;59459;51.172;6.682;2023-08-06T01:43:39;5.27;;;1.90;;
71610;SDS011;59459;51.172;6.682;2023-08-06T01:46:04;6.10;;;2.10;;
71610;SDS011;59459;51.172;6.682;2023-08-06T01:48:29;5.13;;;2.10;;
71610;SDS011;59459;51.172;6.682;2023-08-06T01:50:54;6.00;;;1.90;;
71610;SDS011;59459;51.172;6.682;2023-08-06T01:53:19;5.37;;;2.00;;
71610;SDS011;59459;51.172;6.682;2023-08-06T01:55:48;5.67;;;1.90;;
71610;SDS011;59459;51.172;6.682;2023-08-06T01:58:13;5.93;;;2.00;;
71610;SDS011;59459;51.172;6.682;2023-08-06T02:00:39;6.30;;;2.17;;
71610;SDS011;59459;51.172;6.682;2023-08-06T02:03:04;5.57;;;2.00;;
71610;SDS011;59459;51.172;6.682;2023-08-06T02:05:29;5.70;;;1.90;;
71610;SDS011;59459;51.172;6.682;2023-08-06T02:07:54;4.00;;;1.60;;
71610;SDS011;59459;51.172;6.682;2023-08-06T02:10:19;4.80;;;2.03;;
71610;SDS011;59459;51.172;6.682;2023-08-06T02:12:45;5.07;;;1.87;;
71610;SDS011;59459;51.172;6.682;2023-08-06T02:15:10;5.60;;;1.70;;
71610;SDS011;59459;51.172;6.682;2023-08-06T02:17:35;6.83;;;2.23;;
71610;SDS011;59459;51.172;6.682;2023-08-06T02:20:00;3.90;;;1.50;;
71610;SDS011;59459;51.172;6.682;2023-08-06T02:22:26;3.70;;;1.63;;
71610;SDS011;59459;51.172;6.682;2023-08-06T02:24:51;6.60;;;2.27;;
71610;SDS011;59459;51.172;6.682;2023-08-06T02:27:16;6.93;;;2.13;;
71610;SDS011;59459;51.172;6.682;2023-08-06T02:29:42;3.47;;;1.53;;
71610;SDS011;59459;51.172;6.682;2023-08-06T02:32:07;6.40;;;1.60;;
71610;SDS011;59459;51.172;6.682;2023-08-06T02:34:32;5.33;;;1.70;;
71610;SDS011;59459;51.172;6.682;2023-08-06T02:36:57;5.63;;;1.83;;
71610;SDS011;59459;51.172;6.682;2023-08-06T02:39:23;4.90;;;1.67;;
71610;SDS011;59459;51.172;6.682;2023-08-06T02:41:48;4.67;;;1.80;;
71610;SDS011;59459;51.172;6.682;2023-08-06T02:44:13;4.77;;;1.63;;
71610;SDS011;59459;51.172;6.682;2023-08-06T02:46:38;4.97;;;1.60;;
71610;SDS011;59459;51.172;6.682;2023-08-06T02:49:03;5.37;;;1.53;;
71610;SDS011;59459;51.172;6.682;2023-08-06T02:51:29;5.40;;;1.60;;
71610;SDS011;59459;51.172;6.682;2023-08-06T02:53:54;5.10;;;1.67;;
71610;SDS011;59459;51.172;6.682;2023-08-06T02:56:19;4.17;;;1.70;;
71610;SDS011;59459;51.172;6.682;2023-08-06T02:58:44;5.60;;;1.63;;
71610;SDS011;59459;51.172;6.682;2023-08-06T03:01:10;4.10;;;1.83;;
71610;SDS011;59459;51.172;6.682;2023-08-06T03:03:35;4.57;;;1.40;;
71610;SDS011;59459;51.172;6.682;2023-08-06T03:06:00;4.27;;;1.40;;
71610;SDS011;59459;51.172;6.682;2023-08-06T03:08:26;4.57;;;1.52;;
71610;SDS011;59459;51.172;6.682;2023-08-06T03:10:51;4.50;;;1.97;;
71610;SDS011;59459;51.172;6.682;2023-08-06T03:13:17;3.72;;;1.40;;
71610;SDS011;59459;51.172;6.682;2023-08-06T03:15:43;4.20;;;1.23;;
71610;SDS011;59459;51.172;6.682;2023-08-06T03:18:08;4.70;;;1.57;;
71610;SDS011;59459;51.172;6.682;2023-08-06T03:20:33;3.47;;;1.53;;
71610;SDS011;59459;51.172;6.682;2023-08-06T03:22:58;4.67;;;1.60;;
71610;SDS011;59459;51.172;6.682;2023-08-06T03:25:23;3.87;;;1.33;;
71610;SDS011;59459;51.172;6.682;2023-08-06T03:27:49;4.97;;;1.57;;
71610;SDS011;59459;51.172;6.682;2023-08-06T03:30:14;5.70;;;1.77;;
71610;SDS011;59459;51.172;6.682;2023-08-06T03:32:39;4.80;;;1.77;;
71610;SDS011;59459;51.172;6.682;2023-08-06T03:35:04;6.03;;;1.60;;
71610;SDS011;59459;51.172;6.682;2023-08-06T03:37:30;5.47;;;1.97;;
71610;SDS011;59459;51.172;6.682;2023-08-06T03:39:55;6.10;;;1.70;;
71610;SDS011;59459;51.172;6.682;2023-08-06T03:42:20;5.07;;;2.10;;
71610;SDS011;59459;51.172;6.682;2023-08-06T03:44:45;7.17;;;2.40;;
71610;SDS011;59459;51.172;6.682;2023-08-06T03:47:12;6.97;;;2.20;;
71610;SDS011;59459;51.172;6.682;2023-08-06T03:49:37;6.87;;;2.50;;
71610;SDS011;59459;51.172;6.682;2023-08-06T03:52:03;5.43;;;2.30;;
71610;SDS011;59459;51.172;6.682;2023-08-06T03:54:28;7.17;;;2.20;;
71610;SDS011;59459;51.172;6.682;2023-08-06T03:56:55;5.07;;;1.98;;
71610;SDS011;59459;51.172;6.682;2023-08-06T03:59:20;6.63;;;2.90;;
71610;SDS011;59459;51.172;6.682;2023-08-06T04:01:45;7.70;;;2.60;;
71610;SDS011;59459;51.172;6.682;2023-08-06T04:04:10;7.17;;;2.30;;
71610;SDS011;59459;51.172;6.682;2023-08-06T04:06:35;6.93;;;2.30;;
71610;SDS011;59459;51.172;6.682;2023-08-06T04:09:01;7.07;;;2.80;;
71610;SDS011;59459;51.172;6.682;2023-08-06T04:11:26;5.87;;;1.90;;
71610;SDS011;59459;51.172;6.682;2023-08-06T04:13:51;5.50;;;2.17;;
71610;SDS011;59459;51.172;6.682;2023-08-06T04:16:16;6.00;;;2.00;;
71610;SDS011;59459;51.172;6.682;2023-08-06T04:18:41;5.00;;;2.50;;
71610;SDS011;59459;51.172;6.682;2023-08-06T04:21:07;7.23;;;2.57;;
71610;SDS011;59459;51.172;6.682;2023-08-06T04:23:32;6.00;;;2.00;;
71610;SDS011;59459;51.172;6.682;2023-08-06T04:25:57;6.63;;;2.13;;
71610;SDS011;59459;51.172;6.682;2023-08-06T04:28:23;6.45;;;2.13;;
71610;SDS011;59459;51.172;6.682;2023-08-06T04:30:48;6.70;;;2.17;;
71610;SDS011;59459;51.172;6.682;2023-08-06T04:33:13;5.00;;;1.90;;
71610;SDS011;59459;51.172;6.682;2023-08-06T04:35:38;4.90;;;1.87;;
71610;SDS011;59459;51.172;6.682;2023-08-06T04:38:04;4.23;;;1.63;;
71610;SDS011;59459;51.172;6.682;2023-08-06T04:40:29;6.40;;;1.47;;
71610;SDS011;59459;51.172;6.682;2023-08-06T04:42:54;3.67;;;1.10;;
71610;SDS011;59459;51.172;6.682;2023-08-06T04:45:19;4.57;;;1.20;;
71610;SDS011;59459;51.172;6.682;2023-08-06T04:47:44;3.70;;;1.00;;
71610;SDS011;59459;51.172;6.682;2023-08-06T04:50:10;3.23;;;1.37;;
71610;SDS011;59459;51.172;6.682;2023-08-06T04:52:35;2.13;;;0.63;;
71610;SDS011;59459;51.172;6.682;2023-08-06T04:55:01;5.95;;;1.10;;
71610;SDS011;59459;51.172;6.682;2023-08-06T04:57:26;2.63;;;0.80;;
71610;SDS011;59459;51.172;6.682;2023-08-06T04:59:51;6.90;;;1.10;;
71610;SDS011;59459;51.172;6.682;2023-08-06T05:02:17;3.23;;;1.10;;
71610;SDS011;59459;51.172;6.682;2023-08-06T05:04:42;5.30;;;1.27;;
71610;SDS011;59459;51.172;6.682;2023-08-06T05:07:07;6.47;;;1.53;;
71610;SDS011;59459;51.172;6.682;2023-08-06T05:09:32;4.70;;;0.93;;
71610;SDS011;59459;51.172;6.682;2023-08-06T05:12:00;4.77;;;1.40;;
71610;SDS011;59459;51.172;6.682;2023-08-06T05:14:25;9.00;;;1.33;;
71610;SDS011;59459;51.172;6.682;2023-08-06T05:16:50;4.60;;;1.30;;
71610;SDS011;59459;51.172;6.682;2023-08-06T05:19:16;5.47;;;1.60;;
71610;SDS011;59459;51.172;6.682;2023-08-06T05:21:41;5.27;;;1.53;;
71610;SDS011;59459;51.172;6.682;2023-08-06T05:24:06;5.63;;;1.50;;
71610;SDS011;59459;51.172;6.682;2023-08-06T05:26:31;3.87;;;1.00;;
71610;SDS011;59459;51.172;6.682;2023-08-06T05:28:56;3.47;;;1.30;;
71610;SDS011;59459;51.172;6.682;2023-08-06T05:31:22;3.07;;;1.20;;
71610;SDS011;59459;51.172;6.682;2023-08-06T05:33:47;4.57;;;1.53;;
71610;SDS011;59459;51.172;6.682;2023-08-06T05:36:12;3.73;;;1.27;;
71610;SDS011;59459;51.172;6.682;2023-08-06T05:38:38;3.60;;;1.25;;
71610;SDS011;59459;51.172;6.682;2023-08-06T05:41:03;4.80;;;1.50;;
71610;SDS011;59459;51.172;6.682;2023-08-06T05:43:28;3.50;;;1.40;;
71610;SDS011;59459;51.172;6.682;2023-08-06T05:45:54;4.10;;;1.30;;
71610;SDS011;59459;51.172;6.682;2023-08-06T05:48:19;3.67;;;1.60;;
71610;SDS011;59459;51.172;6.682;2023-08-06T05:50:44;3.60;;;1.20;;
71610;SDS011;59459;51.172;6.682;2023-08-06T05:53:09;3.70;;;1.30;;
71610;SDS011;59459;51.172;6.682;2023-08-06T05:55:34;7.53;;;1.73;;
71610;SDS011;59459;51.172;6.682;2023-08-06T05:58:00;5.53;;;1.63;;
71610;SDS011;59459;51.172;6.682;2023-08-06T06:00:25;6.60;;;1.83;;
71610;SDS011;59459;51.172;6.682;2023-08-06T06:02:51;4.70;;;1.40;;
71610;SDS011;59459;51.172;6.682;2023-08-06T06:05:16;5.70;;;1.60;;
71610;SDS011;59459;51.172;6.682;2023-08-06T06:07:41;5.50;;;1.77;;
71610;SDS011;59459;51.172;6.682;2023-08-06T06:10:06;3.40;;;1.40;;
71610;SDS011;59459;51.172;6.682;2023-08-06T06:12:32;4.13;;;1.47;;
71610;SDS011;59459;51.172;6.682;2023-08-06T06:14:57;5.10;;;1.77;;
71610;SDS011;59459;51.172;6.682;2023-08-06T06:17:23;4.60;;;1.40;;
71610;SDS011;59459;51.172;6.682;2023-08-06T06:19:48;4.37;;;2.10;;
71610;SDS011;59459;51.172;6.682;2023-08-06T06:22:13;5.57;;;2.10;;
71610;SDS011;59459;51.172;6.682;2023-08-06T06:24:39;6.03;;;1.37;;
71610;SDS011;59459;51.172;6.682;2023-08-06T06:27:04;7.03;;;2.20;;
71610;SDS011;59459;51.172;6.682;2023-08-06T06:29:29;5.60;;;2.23;;
71610;SDS011;59459;51.172;6.682;2023-08-06T06:31:54;6.53;;;2.07;;
71610;SDS011;59459;51.172;6.682;2023-08-06T06:34:20;6.23;;;1.90;;
71610;SDS011;59459;51.172;6.682;2023-08-06T06:36:45;4.30;;;1.93;;
71610;SDS011;59459;51.172;6.682;2023-08-06T06:39:10;5.37;;;2.50;;
71610;SDS011;59459;51.172;6.682;2023-08-06T06:41:36;7.47;;;3.00;;
71610;SDS011;59459;51.172;6.682;2023-08-06T06:44:01;7.77;;;3.10;;
71610;SDS011;59459;51.172;6.682;2023-08-06T06:46:26;7.03;;;3.40;;
71610;SDS011;59459;51.172;6.682;2023-08-06T06:48:51;7.00;;;3.10;;
71610;SDS011;59459;51.172;6.682;2023-08-06T06:51:16;6.37;;;3.53;;
71610;SDS011;59459;51.172;6.682;2023-08-06T06:53:42;7.33;;;3.27;;
71610;SDS011;59459;51.172;6.682;2023-08-06T06:56:07;6.70;;;3.40;;
71610;SDS011;59459;51.172;6.682;2023-08-06T06:58:32;6.83;;;3.20;;
71610;SDS011;59459;51.172;6.682;2023-08-06T07:00:57;8.97;;;3.80;;
71610;SDS011;59459;51.172;6.682;2023-08-06T07:03:23;9.27;;;3.90;;
71610;SDS011;59459;51.172;6.682;2023-08-06T07:05:49;8.20;;;3.60;;
71610;SDS011;59459;51.172;6.682;2023-08-06T07:08:14;8.77;;;3.50;;
71610;SDS011;59459;51.172;6.682;2023-08-06T07:10:40;7.43;;;2.90;;
71610;SDS011;59459;51.172;6.682;2023-08-06T07:13:05;8.32;;;3.30;;
71610;SDS011;59459;51.172;6.682;2023-08-06T07:15:31;7.13;;;3.70;;
71610;SDS011;59459;51.172;6.682;2023-08-06T07:17:56;7.77;;;3.53;;
71610;SDS011;59459;51.172;6.682;2023-08-06T07:20:21;6.20;;;2.57;;
71610;SDS011;59459;51.172;6.682;2023-08-06T07:22:47;5.67;;;2.87;;
71610;SDS011;59459;51.172;6.682;2023-08-06T07:25:12;4.83;;;2.00;;
71610;SDS011;59459;51.172;6.682;2023-08-06T07:27:37;5.67;;;2.70;;
71610;SDS011;59459;51.172;6.682;2023-08-06T07:30:03;6.13;;;2.40;;
71610;SDS011;59459;51.172;6.682;2023-08-06T07:32:28;4.93;;;1.98;;
71610;SDS011;59459;51.172;6.682;2023-08-06T07:34:53;6.63;;;2.67;;
71610;SDS011;59459;51.172;6.682;2023-08-06T07:37:24;5.55;;;2.70;;
71610;SDS011;59459;51.172;6.682;2023-08-06T07:39:49;6.40;;;2.80;;
71610;SDS011;59459;51.172;6.682;2023-08-06T07:42:14;6.47;;;3.13;;
71610;SDS011;59459;51.172;6.682;2023-08-06T07:44:40;4.97;;;2.00;;
71610;SDS011;59459;51.172;6.682;2023-08-06T07:47:05;6.37;;;2.60;;
71610;SDS011;59459;51.172;6.682;2023-08-06T07:49:30;7.00;;;2.70;;
71610;SDS011;59459;51.172;6.682;2023-08-06T07:51:55;7.83;;;2.60;;
71610;SDS011;59459;51.172;6.682;2023-08-06T07:54:21;5.83;;;2.53;;
71610;SDS011;59459;51.172;6.682;2023-08-06T07:56:46;7.00;;;2.53;;
71610;SDS011;59459;51.172;6.682;2023-08-06T07:59:12;9.03;;;2.73;;
71610;SDS011;59459;51.172;6.682;2023-08-06T08:01:37;5.83;;;2.20;;
71610;SDS011;59459;51.172;6.682;2023-08-06T08:04:02;6.23;;;2.30;;
71610;SDS011;59459;51.172;6.682;2023-08-06T08:06:27;5.13;;;2.10;;
71610;SDS011;59459;51.172;6.682;2023-08-06T08:08:53;6.10;;;2.00;;
71610;SDS011;59459;51.172;6.682;2023-08-06T08:11:18;4.37;;;1.70;;
71610;SDS011;59459;51.172;6.682;2023-08-06T08:13:43;4.50;;;2.00;;
71610;SDS011;59459;51.172;6.682;2023-08-06T08:16:09;4.22;;;1.60;;
71610;SDS011;59459;51.172;6.682;2023-08-06T08:18:34;4.73;;;2.00;;
71610;SDS011;59459;51.172;6.682;2023-08-06T08:20:59;5.53;;;2.20;;
71610;SDS011;59459;51.172;6.682;2023-08-06T08:23:24;5.07;;;2.00;;
71610;SDS011;59459;51.172;6.682;2023-08-06T08:25:49;4.83;;;2.17;;
71610;SDS011;59459;51.172;6.682;2023-08-06T08:28:15;3.37;;;1.80;;
71610;SDS011;59459;51.172;6.682;2023-08-06T08:30:40;5.43;;;2.30;;
71610;SDS011;59459;51.172;6.682;2023-08-06T08:33:06;4.75;;;2.38;;
71610;SDS011;59459;51.172;6.682;2023-08-06T08:35:32;5.97;;;2.60;;
71610;SDS011;59459;51.172;6.682;2023-08-06T08:37:58;5.60;;;2.20;;
71610;SDS011;59459;51.172;6.682;2023-08-06T08:40:23;5.03;;;2.17;;
71610;SDS011;59459;51.172;6.682;2023-08-06T08:42:49;5.80;;;2.50;;
71610;SDS011;59459;51.172;6.682;2023-08-06T08:45:15;5.97;;;2.67;;
71610;SDS011;59459;51.172;6.682;2023-08-06T08:47:41;5.38;;;2.40;;
71610;SDS011;59459;51.172;6.682;2023-08-06T08:50:07;6.57;;;2.90;;
71610;SDS011;59459;51.172;6.682;2023-08-06T08:52:33;5.77;;;2.60;;
71610;SDS011;59459;51.172;6.682;2023-08-06T08:54:59;4.70;;;2.20;;
71610;SDS011;59459;51.172;6.682;2023-08-06T08:57:26;5.45;;;2.33;;
71610;SDS011;59459;51.172;6.682;2023-08-06T08:59:51;7.20;;;2.80;;
71610;SDS011;59459;51.172;6.682;2023-08-06T09:02:16;6.53;;;2.77;;
71610;SDS011;59459;51.172;6.682;2023-08-06T09:04:42;7.07;;;2.73;;
71610;SDS011;59459;51.172;6.682;2023-08-06T09:07:08;5.30;;;2.85;;
71610;SDS011;59459;51.172;6.682;2023-08-06T09:09:35;4.85;;;2.28;;
71610;SDS011;59459;51.172;6.682;2023-08-06T09:12:08;3.90;;;2.05;;
71610;SDS011;59459;51.172;6.682;2023-08-06T09:14:35;5.75;;;2.00;;
71610;SDS011;59459;51.172;6.682;2023-08-06T09:17:00;4.63;;;2.17;;
71610;SDS011;59459;51.172;6.682;2023-08-06T09:19:26;3.83;;;1.90;;
71610;SDS011;59459;51.172;6.682;2023-08-06T09:21:55;2.58;;;1.02;;
71610;SDS011;59459;51.172;6.682;2023-08-06T09:24:20;1.90;;;1.10;;
71610;SDS011;59459;51.172;6.682;2023-08-06T09:26:46;3.08;;;1.27;;
71610;SDS011;59459;51.172;6.682;2023-08-06T09:29:12;3.67;;;1.30;;
71610;SDS011;59459;51.172;6.682;2023-08-06T09:31:40;4.40;;;1.20;;
71610;SDS011;59459;51.172;6.682;2023-08-06T09:34:10;3.75;;;1.40;;
71610;SDS011;59459;51.172;6.682;2023-08-06T09:36:38;5.20;;;1.70;;
71610;SDS011;59459;51.172;6.682;2023-08-06T09:39:11;5.28;;;1.75;;
71610;SDS011;59459;51.172;6.682;2023-08-06T09:41:37;5.83;;;1.40;;
71610;SDS011;59459;51.172;6.682;2023-08-06T09:44:02;5.87;;;2.00;;
71610;SDS011;59459;51.172;6.682;2023-08-06T09:46:28;4.10;;;1.30;;
71610;SDS011;59459;51.172;6.682;2023-08-06T09:48:53;3.73;;;1.30;;
71610;SDS011;59459;51.172;6.682;2023-08-06T09:51:18;3.03;;;1.20;;
71610;SDS011;59459;51.172;6.682;2023-08-06T09:53:44;3.60;;;0.97;;
71610;SDS011;59459;51.172;6.682;2023-08-06T09:56:10;3.42;;;1.25;;
71610;SDS011;59459;51.172;6.682;2023-08-06T09:58:36;2.07;;;0.97;;
71610;SDS011;59459;51.172;6.682;2023-08-06T10:01:01;3.23;;;1.00;;
71610;SDS011;59459;51.172;6.682;2023-08-06T10:03:28;3.03;;;1.40;;
71610;SDS011;59459;51.172;6.682;2023-08-06T10:05:55;5.43;;;1.13;;
71610;SDS011;59459;51.172;6.682;2023-08-06T10:08:20;1.93;;;0.87;;
71610;SDS011;59459;51.172;6.682;2023-08-06T10:10:45;2.50;;;1.27;;
71610;SDS011;59459;51.172;6.682;2023-08-06T10:13:10;3.73;;;1.70;;
71610;SDS011;59459;51.172;6.682;2023-08-06T10:15:37;3.25;;;1.10;;
71610;SDS011;59459;51.172;6.682;2023-08-06T10:18:03;3.17;;;1.27;;
71610;SDS011;59459;51.172;6.682;2023-08-06T10:20:36;2.88;;;1.10;;
71610;SDS011;59459;51.172;6.682;2023-08-06T10:25:28;2.17;;;1.10;;
71610;SDS011;59459;51.172;6.682;2023-08-06T10:27:55;2.40;;;0.80;;
71610;SDS011;59459;51.172;6.682;2023-08-06T10:30:21;2.25;;;0.80;;
71610;SDS011;59459;51.172;6.682;2023-08-06T10:32:48;2.50;;;0.90;;
71610;SDS011;59459;51.172;6.682;2023-08-06T10:35:36;1.88;;;0.70;;
71610;SDS011;59459;51.172;6.682;2023-08-06T10:38:12;1.50;;;0.60;;
71610;SDS011;59459;51.172;6.682;2023-08-06T10:40:42;2.43;;;0.77;;
71610;SDS011;59459;51.172;6.682;2023-08-06T10:43:07;1.85;;;0.70;;
71610;SDS011;59459;51.172;6.682;2023-08-06T10:45:34;2.40;;;0.93;;
71610;SDS011;59459;51.172;6.682;2023-08-06T10:47:59;2.08;;;0.80;;
71610;SDS011;59459;51.172;6.682;2023-08-06T10:50:25;2.27;;;0.73;;
71610;SDS011;59459;51.172;6.682;2023-08-06T10:52:50;1.33;;;0.70;;
71610;SDS011;59459;51.172;6.682;2023-08-06T10:55:25;1.00;;;0.50;;
71610;SDS011;59459;51.172;6.682;2023-08-06T10:57:51;1.37;;;0.50;;
71610;SDS011;59459;51.172;6.682;2023-08-06T11:00:16;1.00;;;0.60;;
71610;SDS011;59459;51.172;6.682;2023-08-06T11:02:41;3.20;;;0.80;;
71610;SDS011;59459;51.172;6.682;2023-08-06T11:05:14;3.03;;;0.82;;
71610;SDS011;59459;51.172;6.682;2023-08-06T11:07:39;2.27;;;0.80;;
71610;SDS011;59459;51.172;6.682;2023-08-06T11:10:05;3.23;;;1.20;;
71610;SDS011;59459;51.172;6.682;2023-08-06T11:12:31;4.40;;;1.23;;
71610;SDS011;59459;51.172;6.682;2023-08-06T11:14:56;6.20;;;1.70;;
71610;SDS011;59459;51.172;6.682;2023-08-06T11:17:21;4.07;;;1.90;;
71610;SDS011;59459;51.172;6.682;2023-08-06T11:19:47;5.32;;;1.90;;
71610;SDS011;59459;51.172;6.682;2023-08-06T11:22:12;5.17;;;2.40;;
71610;SDS011;59459;51.172;6.682;2023-08-06T11:24:39;5.77;;;2.30;;
71610;SDS011;59459;51.172;6.682;2023-08-06T11:27:11;6.20;;;1.77;;
71610;SDS011;59459;51.172;6.682;2023-08-06T11:29:39;5.63;;;1.90;;
71610;SDS011;59459;51.172;6.682;2023-08-06T11:32:05;8.90;;;2.70;;
71610;SDS011;59459;51.172;6.682;2023-08-06T11:34:30;6.53;;;2.38;;
71610;SDS011;59459;51.172;6.682;2023-08-06T11:36:56;7.10;;;2.83;;
71610;SDS011;59459;51.172;6.682;2023-08-06T11:39:21;5.73;;;2.30;;
71610;SDS011;59459;51.172;6.682;2023-08-06T11:41:47;5.10;;;1.70;;
71610;SDS011;59459;51.172;6.682;2023-08-06T11:44:13;5.85;;;2.00;;
71610;SDS011;59459;51.172;6.682;2023-08-06T11:46:51;4.83;;;1.67;;
71610;SDS011;59459;51.172;6.682;2023-08-06T11:50:06;5.45;;;2.05;;
71610;SDS011;59459;51.172;6.682;2023-08-06T11:52:22;3.88;;;1.50;;
71610;SDS011;59459;51.172;6.682;2023-08-06T11:55:09;3.70;;;0.93;;
71610;SDS011;59459;51.172;6.682;2023-08-06T11:57:37;5.00;;;1.35;;
71610;SDS011;59459;51.172;6.682;2023-08-06T12:00:03;5.23;;;1.70;;
71610;SDS011;59459;51.172;6.682;2023-08-06T12:02:30;5.15;;;1.30;;
71610;SDS011;59459;51.172;6.682;2023-08-06T12:07:36;4.10;;;1.23;;
71610;SDS011;59459;51.172;6.682;2023-08-06T12:10:02;5.90;;;1.80;;
71610;SDS011;59459;51.172;6.682;2023-08-06T12:12:27;6.10;;;1.50;;
71610;SDS011;59459;51.172;6.682;2023-08-06T12:14:52;4.50;;;1.53;;
71610;SDS011;59459;51.172;6.682;2023-08-06T12:17:18;4.87;;;1.40;;
71610;SDS011;59459;51.172;6.682;2023-08-06T12:19:44;3.97;;;1.30;;
71610;SDS011;59459;51.172;6.682;2023-08-06T12:22:09;3.92;;;1.50;;
71610;SDS011;59459;51.172;6.682;2023-08-06T12:24:34;12.40;;;2.10;;
71610;SDS011;59459;51.172;6.682;2023-08-06T12:27:00;4.40;;;1.20;;
71610;SDS011;59459;51.172;6.682;2023-08-06T12:29:27;4.85;;;1.40;;
71610;SDS011;59459;51.172;6.682;2023-08-06T12:31:53;6.75;;;1.90;;
71610;SDS011;59459;51.172;6.682;2023-08-06T12:34:18;5.17;;;1.57;;
71610;SDS011;59459;51.172;6.682;2023-08-06T12:36:43;3.40;;;0.97;;
71610;SDS011;59459;51.172;6.682;2023-08-06T12:39:08;6.90;;;1.70;;
71610;SDS011;59459;51.172;6.682;2023-08-06T12:41:34;4.10;;;1.23;;
71610;SDS011;59459;51.172;6.682;2023-08-06T12:44:00;5.70;;;1.77;;
71610;SDS011;59459;51.172;6.682;2023-08-06T12:46:26;10.00;;;1.45;;
71610;SDS011;59459;51.172;6.682;2023-08-06T12:48:51;6.27;;;1.50;;
71610;SDS011;59459;51.172;6.682;2023-08-06T12:51:16;4.07;;;1.43;;
71610;SDS011;59459;51.172;6.682;2023-08-06T12:53:42;7.47;;;1.67;;
71610;SDS011;59459;51.172;6.682;2023-08-06T12:56:07;3.30;;;1.37;;
71610;SDS011;59459;51.172;6.682;2023-08-06T12:58:32;3.90;;;1.10;;
71610;SDS011;59459;51.172;6.682;2023-08-06T13:00:57;3.77;;;1.23;;
71610;SDS011;59459;51.172;6.682;2023-08-06T13:03:22;4.17;;;1.80;;
71610;SDS011;59459;51.172;6.682;2023-08-06T13:05:48;4.00;;;1.30;;
71610;SDS011;59459;51.172;6.682;2023-08-06T13:08:13;3.97;;;1.43;;
71610;SDS011;59459;51.172;6.682;2023-08-06T13:10:38;4.43;;;1.17;;
71610;SDS011;59459;51.172;6.682;2023-08-06T13:13:03;6.10;;;1.30;;
71610;SDS011;59459;51.172;6.682;2023-08-06T13:15:29;4.03;;;1.10;;
71610;SDS011;59459;51.172;6.682;2023-08-06T13:17:54;3.83;;;1.17;;
71610;SDS011;59459;51.172;6.682;2023-08-06T13:20:19;5.87;;;1.50;;
71610;SDS011;59459;51.172;6.682;2023-08-06T13:22:45;5.22;;;2.05;;
71610;SDS011;59459;51.172;6.682;2023-08-06T13:25:11;6.60;;;1.90;;
71610;SDS011;59459;51.172;6.682;2023-08-06T13:27:36;5.33;;;1.47;;
71610;SDS011;59459;51.172;6.682;2023-08-06T13:30:02;5.50;;;1.63;;
71610;SDS011;59459;51.172;6.682;2023-08-06T13:32:28;4.97;;;1.50;;
71610;SDS011;59459;51.172;6.682;2023-08-06T13:34:53;4.67;;;1.60;;
71610;SDS011;59459;51.172;6.682;2023-08-06T13:37:18;5.90;;;1.40;;
71610;SDS011;59459;51.172;6.682;2023-08-06T13:39:43;4.20;;;1.13;;
71610;SDS011;59459;51.172;6.682;2023-08-06T13:42:08;8.17;;;2.00;;
71610;SDS011;59459;51.172;6.682;2023-08-06T13:44:34;5.27;;;1.43;;
71610;SDS011;59459;51.172;6.682;2023-08-06T13:47:01;5.10;;;1.75;;
71610;SDS011;59459;51.172;6.682;2023-08-06T13:49:26;4.37;;;2.00;;
71610;SDS011;59459;51.172;6.682;2023-08-06T13:51:51;4.53;;;1.20;;
71610;SDS011;59459;51.172;6.682;2023-08-06T13:54:16;5.03;;;1.60;;
71610;SDS011;59459;51.172;6.682;2023-08-06T13:56:41;3.30;;;0.93;;
71610;SDS011;59459;51.172;6.682;2023-08-06T13:59:07;8.30;;;1.93;;
71610;SDS011;59459;51.172;6.682;2023-08-06T14:01:33;6.07;;;1.70;;
71610;SDS011;59459;51.172;6.682;2023-08-06T14:03:58;7.10;;;1.50;;
71610;SDS011;59459;51.172;6.682;2023-08-06T14:06:23;6.50;;;2.10;;
71610;SDS011;59459;51.172;6.682;2023-08-06T14:08:48;4.07;;;1.40;;
71610;SDS011;59459;51.172;6.682;2023-08-06T14:11:14;6.77;;;2.27;;
71610;SDS011;59459;51.172;6.682;2023-08-06T14:13:39;6.73;;;1.80;;
71610;SDS011;59459;51.172;6.682;2023-08-06T14:16:04;5.43;;;1.60;;
71610;SDS011;59459;51.172;6.682;2023-08-06T14:18:29;5.10;;;1.70;;
71610;SDS011;59459;51.172;6.682;2023-08-06T14:20:55;6.23;;;2.23;;
71610;SDS011;59459;51.172;6.682;2023-08-06T14:23:20;5.07;;;2.27;;
71610;SDS011;59459;51.172;6.682;2023-08-06T14:25:45;5.97;;;1.73;;
71610;SDS011;59459;51.172;6.682;2023-08-06T14:28:11;6.03;;;1.90;;
71610;SDS011;59459;51.172;6.682;2023-08-06T14:30:37;5.60;;;2.03;;
71610;SDS011;59459;51.172;6.682;2023-08-06T14:33:02;6.13;;;2.23;;
71610;SDS011;59459;51.172;6.682;2023-08-06T14:35:28;4.28;;;1.40;;
71610;SDS011;59459;51.172;6.682;2023-08-06T14:37:53;5.10;;;1.93;;
71610;SDS011;59459;51.172;6.682;2023-08-06T14:40:18;4.50;;;1.80;;
71610;SDS011;59459;51.172;6.682;2023-08-06T14:42:43;4.83;;;2.20;;
71610;SDS011;59459;51.172;6.682;2023-08-06T14:45:09;6.50;;;1.60;;
71610;SDS011;59459;51.172;6.682;2023-08-06T14:47:34;5.17;;;1.67;;